• Join FlightAware (Why Join?)
  • Login
  • US Flag 
12:53PM EDT


 

Airport Tracker/Info


-or-


 

Live Flight TrackerFlight Track Log ✈ JBU1329 ✈ 21-Apr-2013 ✈ KBOS - KBWI

Flight Track Log - Related Links

Times and Time Zones

All times are in EDT time to prevent confusion due to time zone crossing. See the JBU1329 flight status page for this flight to view local times or setup timezone preferences in your user account.

Time Position Orientation Groundspeed Altitude Reporting Facility
EDT Latitude Longitude Course Direction KTS MPH feet Rate Location/Type
08:27AM 42.3833 -71.0000 228° Southwest 142 163 1,100  Level KA90
08:29AM 42.4333 -70.9667 26° Northeast 204 235 4,400 2,820 Climbing KA90
08:30AM 42.4067 -70.7500 180° South  Level FlightAware Approximate
08:30AM 42.4667 -70.8500 69° East 278 320 8,200  Level KA90
08:31AM 42.3234 -70.7214 172° South  Level FlightAware Approximate
08:31AM 42.4361 -70.7831 122° Southeast 312 359 10,500  Level Boston Center
08:32AM 42.2570 -70.7812 228° Southwest  Level FlightAware Approximate
08:32AM 42.3522 -70.7406 159° South 326 375 12,300  Level Boston Center
08:33AM 42.2736 -70.7847 203° Southwest 281 323 13,900 1,380 Climbing Boston Center
08:34AM 42.2250 -70.8700 232° Southwest 272 313 15,100 1,740 Climbing Boston Center
08:35AM 42.1925 -70.9522 242° Southwest 258 297 17,400 2,460 Climbing Boston Center
08:36AM 42.1856 -71.0503 265° West 253 291 20,100 2,700 Climbing Boston Center
08:37AM 42.1722 -71.1486 260° West 265 305 22,800 2,520 Climbing Boston Center
08:38AM 42.1586 -71.2442 259° West 271 312 25,200 1,560 Climbing Boston Center
08:39AM 42.1450 -71.3481 260° West 276 318 26,000 360 Climbing Boston Center
08:40AM 42.1314 -71.4519 260° West 276 318 26,000 300 Level Boston Center
08:41AM 42.1197 -71.5389 260° West 282 325 26,600 780 Climbing Boston Center
08:42AM 42.0914 -71.6847 255° West 306 352 27,600 1,140 Climbing Boston Center
08:43AM 42.0736 -71.8164 260° West 343 395 28,900 1,560 Climbing Boston Center
08:44AM 42.0494 -71.9761 259° West 355 409 31,100 1,380 Climbing Boston Center
08:45AM 42.0122 -72.0992 248° West 361 415 32,000 420 Climbing Boston Center
08:46AM 41.9542 -72.2139 236° Southwest 361 415 32,000  Level Boston Center
08:47AM 41.9169 -72.3342 247° West 361 415 32,000  Level Boston Center
08:48AM 41.9003 -72.4597 260° West 356 410 32,000  Level Boston Center
08:49AM 41.8833 -72.5878 260° West 350 403 32,000  Level Boston Center
08:50AM 41.8500 -72.7047 249° West 345 397 32,000  Level Boston Center
08:51AM 41.7869 -72.8075 231° Southwest 342 394 32,000  Level Boston Center
08:52AM 41.7222 -72.9072 229° Southwest 360 414 32,000  Level Boston Center
08:53AM 41.6611 -73.0069 231° Southwest 365 420 32,000  Level Boston Center
08:54AM 41.6500 -73.1347 263° West 339 390 32,000  Level Boston Center
08:55AM 41.6514 -73.2681 271° West 344 396 32,000  Level Boston Center
08:56AM 41.6544 -73.3764 272° West 352 405 32,000  Level Boston Center
08:57AM 41.6656 -73.5322 276° West 352 405 32,000  Level Boston Center
08:58AM 41.7536 -73.7186 302° West 371 427 32,000  Level New York Center
08:59AM 41.7094 -73.8250 241° Southwest 303 349 32,000  Level New York Center
09:00AM 41.6181 -73.8872 207° Southwest 311 358 32,000  Level New York Center
09:01AM 41.5292 -73.9414 205° Southwest 327 376 32,000  Level New York Center
09:02AM 41.4381 -74.0006 206° Southwest 349 402 32,000  Level New York Center
09:03AM 41.3411 -74.0456 199° South 364 419 32,000  Level New York Center
09:04AM 41.2347 -74.0489 181° South 370 426 32,000 -60 Level New York Center
09:05AM 41.1478 -74.1050 206° Southwest 370 426 31,900 -660 Descending New York Center
09:06AM 41.0647 -74.1753 213° Southwest 358 412 30,700 -1,260 Descending New York Center
09:07AM 40.9772 -74.2450 211° Southwest 364 419 29,400 -1,320 Descending New York Center
09:08AM 40.8917 -74.3147 212° Southwest 370 426 28,100 -720 Descending New York Center
09:09AM 40.8042 -74.3897 213° Southwest 375 432 28,000 -60 Descending New York Center
09:10AM 40.7386 -74.4875 229° Southwest 369 425 28,000  Level New York Center
09:11AM 40.6769 -74.5883 231° Southwest 362 417 28,000  Level New York Center
09:12AM 40.6133 -74.6886 230° Southwest 367 422 28,000 -180 Level New York Center
09:13AM 40.5494 -74.7914 231° Southwest 367 422 27,700 -1,020 Descending New York Center
09:14AM 40.4814 -74.8883 227° Southwest 367 422 26,000 -1,800 Descending New York Center
09:15AM 40.4136 -74.9797 226° Southwest 362 417 24,200 -1,740 Descending New York Center
09:16AM 40.3456 -75.0764 227° Southwest 362 417 22,500 -1,740 Descending New York Center
09:17AM 40.2817 -75.1678 228° Southwest 356 410 20,800 -1,740 Descending New York Center
09:18AM 40.2178 -75.2586 227° Southwest 356 410 19,100 -1,440 Descending New York Center
09:19AM 40.1519 -75.3494 227° Southwest 356 410 18,000 -600 Descending New York Center
09:20AM 40.0878 -75.4403 227° Southwest 356 410 18,000  Level New York Center
09:21AM 40.0219 -75.5253 225° Southwest 350 403 18,000 -60 Level New York Center
09:22AM 39.9578 -75.6158 227° Southwest 350 403 17,900 -840 Descending New York Center
09:23AM 39.8978 -75.7064 229° Southwest 350 403 16,400 -1,620 Descending New York Center
09:24AM 39.8456 -75.8081 236° Southwest 339 390 14,700 -1,560 Descending New York Center
09:25AM 39.8022 -75.8914 236° Southwest 334 384 13,300 -1,380 Descending New York Center
09:26AM 39.7497 -75.9956 237° Southwest 329 379 12,000 -1,020 Descending New York Center
09:29AM 39.6167 -76.1667 225° Southwest 276 318 10,200 -1,140 Descending Potomac TRACON
09:30AM 39.5667 -76.2333 226° Southwest 277 319 8,400 -1,800 Descending Potomac TRACON
09:31AM 39.5000 -76.3000 218° Southwest 271 312 6,600 -1,740 Descending Potomac TRACON
09:32AM 39.4500 -76.3500 218° Southwest 265 305 5,100 -1,080 Descending Potomac TRACON
09:33AM 39.4000 -76.4167 226° Southwest 273 314 4,600 -600 Descending Potomac TRACON
09:34AM 39.3167 -76.4333 189° South 274 315 4,000 -840 Descending Potomac TRACON
09:34AM 39.2667 -76.4833 218° Southwest 267 307 3,000 -540 Descending Potomac TRACON
09:35AM 39.2000 -76.5333 210° Southwest 235 270 3,000 -420 Level Potomac TRACON
09:36AM 39.1667 -76.5667 218° Southwest 191 220 2,200 -780 Descending Potomac TRACON
09:37AM 39.1333 -76.6167 229° Southwest 161 185 1,500 -840 Descending Potomac TRACON
09:38AM 39.1500 -76.6500 303° West 121 139 600 -900 Descending Potomac TRACON